sensor_id;sensor_type;location;lat;lon;timestamp;P1;durP1;ratioP1;P2;durP2;ratioP2
20324;SDS011;10320;49.482;11.256;2023-08-01T00:02:24;9.17;;;6.70;;
20324;SDS011;10320;49.482;11.256;2023-08-01T00:04:50;7.27;;;6.20;;
20324;SDS011;10320;49.482;11.256;2023-08-01T00:07:16;7.40;;;6.43;;
20324;SDS011;10320;49.482;11.256;2023-08-01T00:09:42;9.53;;;6.93;;
20324;SDS011;10320;49.482;11.256;2023-08-01T00:12:08;7.87;;;6.57;;
20324;SDS011;10320;49.482;11.256;2023-08-01T00:14:35;7.97;;;6.17;;
20324;SDS011;10320;49.482;11.256;2023-08-01T00:17:01;8.83;;;6.50;;
20324;SDS011;10320;49.482;11.256;2023-08-01T00:19:27;7.87;;;6.30;;
20324;SDS011;10320;49.482;11.256;2023-08-01T00:21:53;7.03;;;6.33;;
20324;SDS011;10320;49.482;11.256;2023-08-01T00:24:19;10.53;;;6.37;;
20324;SDS011;10320;49.482;11.256;2023-08-01T00:26:45;9.70;;;7.00;;
20324;SDS011;10320;49.482;11.256;2023-08-01T00:29:12;7.23;;;6.23;;
20324;SDS011;10320;49.482;11.256;2023-08-01T00:31:38;7.13;;;6.40;;
20324;SDS011;10320;49.482;11.256;2023-08-01T00:34:04;7.10;;;6.40;;
20324;SDS011;10320;49.482;11.256;2023-08-01T00:36:30;8.97;;;6.20;;
20324;SDS011;10320;49.482;11.256;2023-08-01T00:38:57;6.37;;;5.67;;
20324;SDS011;10320;49.482;11.256;2023-08-01T00:41:23;9.33;;;6.00;;
20324;SDS011;10320;49.482;11.256;2023-08-01T00:43:49;8.00;;;6.23;;
20324;SDS011;10320;49.482;11.256;2023-08-01T00:46:15;6.90;;;5.87;;
20324;SDS011;10320;49.482;11.256;2023-08-01T00:48:41;8.47;;;6.43;;
20324;SDS011;10320;49.482;11.256;2023-08-01T00:51:07;6.33;;;5.67;;
20324;SDS011;10320;49.482;11.256;2023-08-01T00:53:34;8.50;;;6.00;;
20324;SDS011;10320;49.482;11.256;2023-08-01T00:56:01;9.93;;;6.07;;
20324;SDS011;10320;49.482;11.256;2023-08-01T00:58:27;6.40;;;5.73;;
20324;SDS011;10320;49.482;11.256;2023-08-01T01:00:53;7.53;;;5.10;;
20324;SDS011;10320;49.482;11.256;2023-08-01T01:03:20;7.57;;;5.77;;
20324;SDS011;10320;49.482;11.256;2023-08-01T01:05:53;9.10;;;5.40;;
20324;SDS011;10320;49.482;11.256;2023-08-01T01:08:22;6.37;;;5.67;;
20324;SDS011;10320;49.482;11.256;2023-08-01T01:10:48;6.30;;;5.30;;
20324;SDS011;10320;49.482;11.256;2023-08-01T01:13:14;7.60;;;5.57;;
20324;SDS011;10320;49.482;11.256;2023-08-01T01:15:40;8.10;;;5.80;;
20324;SDS011;10320;49.482;11.256;2023-08-01T01:18:06;7.27;;;5.50;;
20324;SDS011;10320;49.482;11.256;2023-08-01T01:20:34;6.80;;;5.10;;
20324;SDS011;10320;49.482;11.256;2023-08-01T01:23:00;5.93;;;5.17;;
20324;SDS011;10320;49.482;11.256;2023-08-01T01:25:28;7.60;;;5.00;;
20324;SDS011;10320;49.482;11.256;2023-08-01T01:27:55;7.50;;;5.53;;
20324;SDS011;10320;49.482;11.256;2023-08-01T01:30:21;8.00;;;5.80;;
20324;SDS011;10320;49.482;11.256;2023-08-01T01:32:48;6.20;;;5.40;;
20324;SDS011;10320;49.482;11.256;2023-08-01T01:35:14;6.30;;;5.10;;
20324;SDS011;10320;49.482;11.256;2023-08-01T01:37:40;5.47;;;4.97;;
20324;SDS011;10320;49.482;11.256;2023-08-01T01:40:06;6.60;;;5.30;;
20324;SDS011;10320;49.482;11.256;2023-08-01T01:42:32;8.47;;;5.30;;
20324;SDS011;10320;49.482;11.256;2023-08-01T01:44:58;9.00;;;5.13;;
20324;SDS011;10320;49.482;11.256;2023-08-01T01:47:24;5.80;;;5.07;;
20324;SDS011;10320;49.482;11.256;2023-08-01T01:49:50;7.33;;;4.80;;
20324;SDS011;10320;49.482;11.256;2023-08-01T01:52:16;6.00;;;4.97;;
20324;SDS011;10320;49.482;11.256;2023-08-01T01:54:42;6.40;;;4.90;;
20324;SDS011;10320;49.482;11.256;2023-08-01T01:57:08;8.73;;;5.10;;
20324;SDS011;10320;49.482;11.256;2023-08-01T01:59:34;5.50;;;5.00;;
20324;SDS011;10320;49.482;11.256;2023-08-01T02:02:00;6.40;;;4.80;;
20324;SDS011;10320;49.482;11.256;2023-08-01T02:04:29;6.60;;;4.83;;
20324;SDS011;10320;49.482;11.256;2023-08-01T02:06:55;6.17;;;4.73;;
20324;SDS011;10320;49.482;11.256;2023-08-01T02:09:21;7.50;;;5.20;;
20324;SDS011;10320;49.482;11.256;2023-08-01T02:11:47;7.57;;;4.87;;
20324;SDS011;10320;49.482;11.256;2023-08-01T02:14:13;7.57;;;5.37;;
20324;SDS011;10320;49.482;11.256;2023-08-01T02:16:39;6.97;;;4.93;;
20324;SDS011;10320;49.482;11.256;2023-08-01T02:19:05;5.70;;;5.20;;
20324;SDS011;10320;49.482;11.256;2023-08-01T02:21:31;8.13;;;5.37;;
20324;SDS011;10320;49.482;11.256;2023-08-01T02:23:58;6.97;;;5.43;;
20324;SDS011;10320;49.482;11.256;2023-08-01T02:26:24;6.37;;;5.07;;
20324;SDS011;10320;49.482;11.256;2023-08-01T02:28:51;6.93;;;5.20;;
20324;SDS011;10320;49.482;11.256;2023-08-01T02:31:17;5.67;;;4.97;;
20324;SDS011;10320;49.482;11.256;2023-08-01T02:33:43;5.50;;;4.80;;
20324;SDS011;10320;49.482;11.256;2023-08-01T02:36:09;7.33;;;5.40;;
20324;SDS011;10320;49.482;11.256;2023-08-01T02:38:35;6.67;;;5.10;;
20324;SDS011;10320;49.482;11.256;2023-08-01T02:41:01;5.97;;;5.07;;
20324;SDS011;10320;49.482;11.256;2023-08-01T02:43:27;7.67;;;5.30;;
20324;SDS011;10320;49.482;11.256;2023-08-01T02:45:53;8.43;;;5.77;;
20324;SDS011;10320;49.482;11.256;2023-08-01T02:48:19;7.10;;;5.40;;
20324;SDS011;10320;49.482;11.256;2023-08-01T02:50:45;7.67;;;5.30;;
20324;SDS011;10320;49.482;11.256;2023-08-01T02:53:11;7.47;;;5.77;;
20324;SDS011;10320;49.482;11.256;2023-08-01T02:55:37;7.17;;;5.50;;
20324;SDS011;10320;49.482;11.256;2023-08-01T02:58:04;6.03;;;5.33;;
20324;SDS011;10320;49.482;11.256;2023-08-01T03:00:30;9.00;;;5.53;;
20324;SDS011;10320;49.482;11.256;2023-08-01T03:02:57;6.60;;;5.20;;
20324;SDS011;10320;49.482;11.256;2023-08-01T03:05:23;5.67;;;5.10;;
20324;SDS011;10320;49.482;11.256;2023-08-01T03:07:49;6.43;;;5.40;;
20324;SDS011;10320;49.482;11.256;2023-08-01T03:10:15;7.40;;;5.80;;
20324;SDS011;10320;49.482;11.256;2023-08-01T03:12:41;6.30;;;5.60;;
20324;SDS011;10320;49.482;11.256;2023-08-01T03:15:07;7.03;;;5.60;;
20324;SDS011;10320;49.482;11.256;2023-08-01T03:17:34;7.77;;;5.50;;
20324;SDS011;10320;49.482;11.256;2023-08-01T03:20:00;7.33;;;5.50;;
20324;SDS011;10320;49.482;11.256;2023-08-01T03:22:26;7.73;;;6.10;;
20324;SDS011;10320;49.482;11.256;2023-08-01T03:24:52;6.83;;;5.50;;
20324;SDS011;10320;49.482;11.256;2023-08-01T03:27:18;8.23;;;5.60;;
20324;SDS011;10320;49.482;11.256;2023-08-01T03:29:44;7.97;;;6.23;;
20324;SDS011;10320;49.482;11.256;2023-08-01T03:32:10;9.40;;;5.70;;
20324;SDS011;10320;49.482;11.256;2023-08-01T03:34:36;7.60;;;5.40;;
20324;SDS011;10320;49.482;11.256;2023-08-01T03:37:04;6.83;;;5.60;;
20324;SDS011;10320;49.482;11.256;2023-08-01T03:39:30;7.23;;;5.50;;
20324;SDS011;10320;49.482;11.256;2023-08-01T03:41:56;8.93;;;5.57;;
20324;SDS011;10320;49.482;11.256;2023-08-01T03:44:22;8.23;;;5.73;;
20324;SDS011;10320;49.482;11.256;2023-08-01T03:46:48;8.37;;;5.57;;
20324;SDS011;10320;49.482;11.256;2023-08-01T03:49:14;6.30;;;5.60;;
20324;SDS011;10320;49.482;11.256;2023-08-01T03:51:40;8.43;;;5.60;;
20324;SDS011;10320;49.482;11.256;2023-08-01T03:54:06;8.10;;;5.43;;
20324;SDS011;10320;49.482;11.256;2023-08-01T03:56:32;8.10;;;5.47;;
20324;SDS011;10320;49.482;11.256;2023-08-01T03:58:58;7.80;;;5.67;;
20324;SDS011;10320;49.482;11.256;2023-08-01T04:01:24;7.43;;;5.73;;
20324;SDS011;10320;49.482;11.256;2023-08-01T04:03:50;8.37;;;5.93;;
20324;SDS011;10320;49.482;11.256;2023-08-01T04:06:16;8.17;;;5.60;;
20324;SDS011;10320;49.482;11.256;2023-08-01T04:08:43;8.27;;;5.73;;
20324;SDS011;10320;49.482;11.256;2023-08-01T04:11:09;7.13;;;5.50;;
20324;SDS011;10320;49.482;11.256;2023-08-01T04:13:36;8.30;;;5.47;;
20324;SDS011;10320;49.482;11.256;2023-08-01T04:16:02;6.47;;;5.50;;
20324;SDS011;10320;49.482;11.256;2023-08-01T04:18:28;8.17;;;5.50;;
20324;SDS011;10320;49.482;11.256;2023-08-01T04:20:54;7.90;;;6.53;;
20324;SDS011;10320;49.482;11.256;2023-08-01T04:23:20;7.63;;;5.27;;
20324;SDS011;10320;49.482;11.256;2023-08-01T04:25:46;8.33;;;6.03;;
20324;SDS011;10320;49.482;11.256;2023-08-01T04:28:12;8.30;;;5.40;;
20324;SDS011;10320;49.482;11.256;2023-08-01T04:30:38;8.00;;;5.50;;
20324;SDS011;10320;49.482;11.256;2023-08-01T04:33:04;6.13;;;5.50;;
20324;SDS011;10320;49.482;11.256;2023-08-01T04:35:30;6.30;;;5.13;;
20324;SDS011;10320;49.482;11.256;2023-08-01T04:37:56;9.83;;;5.90;;
20324;SDS011;10320;49.482;11.256;2023-08-01T04:40:22;6.93;;;5.57;;
20324;SDS011;10320;49.482;11.256;2023-08-01T04:42:48;7.33;;;5.23;;
20324;SDS011;10320;49.482;11.256;2023-08-01T04:45:14;6.53;;;5.80;;
20324;SDS011;10320;49.482;11.256;2023-08-01T04:47:40;7.13;;;5.43;;
20324;SDS011;10320;49.482;11.256;2023-08-01T04:50:06;7.07;;;5.67;;
20324;SDS011;10320;49.482;11.256;2023-08-01T04:52:32;7.23;;;5.37;;
20324;SDS011;10320;49.482;11.256;2023-08-01T04:54:58;7.23;;;5.40;;
20324;SDS011;10320;49.482;11.256;2023-08-01T04:57:24;5.70;;;5.20;;
20324;SDS011;10320;49.482;11.256;2023-08-01T04:59:50;7.87;;;5.93;;
20324;SDS011;10320;49.482;11.256;2023-08-01T05:02:16;5.90;;;5.30;;
20324;SDS011;10320;49.482;11.256;2023-08-01T05:04:42;6.80;;;5.60;;
20324;SDS011;10320;49.482;11.256;2023-08-01T05:07:09;6.30;;;5.67;;
20324;SDS011;10320;49.482;11.256;2023-08-01T05:09:35;8.17;;;5.70;;
20324;SDS011;10320;49.482;11.256;2023-08-01T05:12:01;6.07;;;5.47;;
20324;SDS011;10320;49.482;11.256;2023-08-01T05:14:27;8.93;;;5.97;;
20324;SDS011;10320;49.482;11.256;2023-08-01T05:16:53;6.67;;;5.03;;
20324;SDS011;10320;49.482;11.256;2023-08-01T05:19:19;7.60;;;5.70;;
20324;SDS011;10320;49.482;11.256;2023-08-01T05:21:44;5.70;;;5.10;;
20324;SDS011;10320;49.482;11.256;2023-08-01T05:24:11;7.33;;;5.67;;
20324;SDS011;10320;49.482;11.256;2023-08-01T05:26:37;8.30;;;5.23;;
20324;SDS011;10320;49.482;11.256;2023-08-01T05:29:03;7.23;;;5.93;;
20324;SDS011;10320;49.482;11.256;2023-08-01T05:31:29;8.87;;;6.30;;
20324;SDS011;10320;49.482;11.256;2023-08-01T05:33:55;6.27;;;5.63;;
20324;SDS011;10320;49.482;11.256;2023-08-01T05:36:21;7.03;;;5.67;;
20324;SDS011;10320;49.482;11.256;2023-08-01T05:38:47;7.47;;;5.33;;
20324;SDS011;10320;49.482;11.256;2023-08-01T05:41:13;8.10;;;5.73;;
20324;SDS011;10320;49.482;11.256;2023-08-01T05:43:39;6.57;;;5.87;;
20324;SDS011;10320;49.482;11.256;2023-08-01T05:46:05;6.23;;;5.60;;
20324;SDS011;10320;49.482;11.256;2023-08-01T05:48:32;7.13;;;5.57;;
20324;SDS011;10320;49.482;11.256;2023-08-01T05:50:58;10.43;;;5.87;;
20324;SDS011;10320;49.482;11.256;2023-08-01T05:53:24;6.33;;;5.17;;
20324;SDS011;10320;49.482;11.256;2023-08-01T05:55:50;7.33;;;5.50;;
20324;SDS011;10320;49.482;11.256;2023-08-01T05:58:16;8.00;;;5.80;;
20324;SDS011;10320;49.482;11.256;2023-08-01T06:00:42;7.77;;;5.90;;
20324;SDS011;10320;49.482;11.256;2023-08-01T06:03:08;8.37;;;5.90;;
20324;SDS011;10320;49.482;11.256;2023-08-01T06:05:35;7.40;;;5.73;;
20324;SDS011;10320;49.482;11.256;2023-08-01T06:08:01;6.50;;;5.80;;
20324;SDS011;10320;49.482;11.256;2023-08-01T06:10:27;7.23;;;5.60;;
20324;SDS011;10320;49.482;11.256;2023-08-01T06:12:53;8.30;;;5.27;;
20324;SDS011;10320;49.482;11.256;2023-08-01T06:15:19;8.18;;;5.35;;
20324;SDS011;10320;49.482;11.256;2023-08-01T06:17:46;7.97;;;5.27;;
20324;SDS011;10320;49.482;11.256;2023-08-01T06:20:12;7.87;;;6.23;;
20324;SDS011;10320;49.482;11.256;2023-08-01T06:22:38;6.40;;;5.50;;
20324;SDS011;10320;49.482;11.256;2023-08-01T06:25:04;6.40;;;5.57;;
20324;SDS011;10320;49.482;11.256;2023-08-01T06:27:30;7.82;;;6.22;;
20324;SDS011;10320;49.482;11.256;2023-08-01T06:29:56;6.43;;;5.17;;
20324;SDS011;10320;49.482;11.256;2023-08-01T06:32:22;8.53;;;5.77;;
20324;SDS011;10320;49.482;11.256;2023-08-01T06:34:48;8.97;;;5.83;;
20324;SDS011;10320;49.482;11.256;2023-08-01T06:37:14;6.53;;;5.93;;
20324;SDS011;10320;49.482;11.256;2023-08-01T06:39:40;10.97;;;6.17;;
20324;SDS011;10320;49.482;11.256;2023-08-01T06:42:06;8.63;;;5.57;;
20324;SDS011;10320;49.482;11.256;2023-08-01T06:44:32;8.27;;;5.73;;
20324;SDS011;10320;49.482;11.256;2023-08-01T06:46:58;6.63;;;5.70;;
20324;SDS011;10320;49.482;11.256;2023-08-01T06:49:24;6.77;;;5.33;;
20324;SDS011;10320;49.482;11.256;2023-08-01T06:51:50;7.37;;;5.80;;
20324;SDS011;10320;49.482;11.256;2023-08-01T06:54:16;8.80;;;6.47;;
20324;SDS011;10320;49.482;11.256;2023-08-01T06:56:42;8.25;;;6.07;;
20324;SDS011;10320;49.482;11.256;2023-08-01T06:59:13;8.50;;;6.27;;
20324;SDS011;10320;49.482;11.256;2023-08-01T07:01:39;9.88;;;6.25;;
20324;SDS011;10320;49.482;11.256;2023-08-01T07:04:08;7.13;;;5.60;;
20324;SDS011;10320;49.482;11.256;2023-08-01T07:06:34;7.93;;;5.53;;
20324;SDS011;10320;49.482;11.256;2023-08-01T07:09:00;7.90;;;5.40;;
20324;SDS011;10320;49.482;11.256;2023-08-01T07:11:26;7.20;;;5.57;;
20324;SDS011;10320;49.482;11.256;2023-08-01T07:13:52;7.73;;;5.60;;
20324;SDS011;10320;49.482;11.256;2023-08-01T07:16:18;8.20;;;5.37;;
20324;SDS011;10320;49.482;11.256;2023-08-01T07:18:44;8.27;;;5.63;;
20324;SDS011;10320;49.482;11.256;2023-08-01T07:21:10;6.30;;;5.20;;
20324;SDS011;10320;49.482;11.256;2023-08-01T07:23:36;8.77;;;5.63;;
20324;SDS011;10320;49.482;11.256;2023-08-01T07:26:02;7.87;;;5.67;;
20324;SDS011;10320;49.482;11.256;2023-08-01T07:28:28;7.45;;;5.70;;
20324;SDS011;10320;49.482;11.256;2023-08-01T07:31:12;7.70;;;5.63;;
20324;SDS011;10320;49.482;11.256;2023-08-01T07:33:38;7.70;;;5.57;;
20324;SDS011;10320;49.482;11.256;2023-08-01T07:36:04;7.32;;;5.57;;
20324;SDS011;10320;49.482;11.256;2023-08-01T07:38:30;7.13;;;6.10;;
20324;SDS011;10320;49.482;11.256;2023-08-01T07:40:57;7.50;;;5.30;;
20324;SDS011;10320;49.482;11.256;2023-08-01T07:43:23;6.65;;;5.20;;
20324;SDS011;10320;49.482;11.256;2023-08-01T07:45:49;7.88;;;5.63;;
20324;SDS011;10320;49.482;11.256;2023-08-01T07:48:15;5.90;;;5.20;;
20324;SDS011;10320;49.482;11.256;2023-08-01T07:50:42;6.55;;;4.90;;
20324;SDS011;10320;49.482;11.256;2023-08-01T07:53:08;7.85;;;5.22;;
20324;SDS011;10320;49.482;11.256;2023-08-01T07:55:34;6.13;;;4.80;;
20324;SDS011;10320;49.482;11.256;2023-08-01T07:58:00;6.75;;;5.55;;
20324;SDS011;10320;49.482;11.256;2023-08-01T08:00:26;7.63;;;5.07;;
20324;SDS011;10320;49.482;11.256;2023-08-01T08:02:52;6.25;;;5.40;;
20324;SDS011;10320;49.482;11.256;2023-08-01T08:05:19;7.40;;;5.25;;
20324;SDS011;10320;49.482;11.256;2023-08-01T08:07:45;6.90;;;5.10;;
20324;SDS011;10320;49.482;11.256;2023-08-01T08:10:11;6.37;;;5.13;;
20324;SDS011;10320;49.482;11.256;2023-08-01T08:12:37;6.40;;;4.80;;
20324;SDS011;10320;49.482;11.256;2023-08-01T08:15:03;7.00;;;5.10;;
20324;SDS011;10320;49.482;11.256;2023-08-01T08:17:29;8.13;;;5.37;;
20324;SDS011;10320;49.482;11.256;2023-08-01T08:19:55;5.83;;;4.90;;
20324;SDS011;10320;49.482;11.256;2023-08-01T08:22:21;5.83;;;5.07;;
20324;SDS011;10320;49.482;11.256;2023-08-01T08:24:48;6.82;;;5.03;;
20324;SDS011;10320;49.482;11.256;2023-08-01T08:27:14;5.78;;;4.82;;
20324;SDS011;10320;49.482;11.256;2023-08-01T08:29:40;5.80;;;4.90;;
20324;SDS011;10320;49.482;11.256;2023-08-01T08:32:06;6.97;;;5.28;;
20324;SDS011;10320;49.482;11.256;2023-08-01T08:34:32;7.82;;;5.25;;
20324;SDS011;10320;49.482;11.256;2023-08-01T08:36:58;6.80;;;5.13;;
20324;SDS011;10320;49.482;11.256;2023-08-01T08:39:24;5.70;;;5.10;;
20324;SDS011;10320;49.482;11.256;2023-08-01T08:41:51;5.68;;;5.07;;
20324;SDS011;10320;49.482;11.256;2023-08-01T08:44:18;6.80;;;5.17;;
20324;SDS011;10320;49.482;11.256;2023-08-01T08:46:46;8.53;;;5.37;;
20324;SDS011;10320;49.482;11.256;2023-08-01T08:49:12;5.70;;;5.10;;
20324;SDS011;10320;49.482;11.256;2023-08-01T08:51:40;6.53;;;4.90;;
20324;SDS011;10320;49.482;11.256;2023-08-01T08:54:07;5.73;;;4.87;;
20324;SDS011;10320;49.482;11.256;2023-08-01T08:56:34;6.63;;;5.10;;
20324;SDS011;10320;49.482;11.256;2023-08-01T08:59:01;6.77;;;5.00;;
20324;SDS011;10320;49.482;11.256;2023-08-01T09:01:28;5.53;;;5.00;;
20324;SDS011;10320;49.482;11.256;2023-08-01T09:03:55;5.50;;;4.90;;
20324;SDS011;10320;49.482;11.256;2023-08-01T09:06:28;5.57;;;4.60;;
20324;SDS011;10320;49.482;11.256;2023-08-01T09:08:56;8.17;;;4.93;;
20324;SDS011;10320;49.482;11.256;2023-08-01T09:11:26;5.37;;;4.87;;
20324;SDS011;10320;49.482;11.256;2023-08-01T09:13:52;5.97;;;4.90;;
20324;SDS011;10320;49.482;11.256;2023-08-01T09:16:18;6.97;;;4.70;;
20324;SDS011;10320;49.482;11.256;2023-08-01T09:18:51;5.20;;;4.37;;
20324;SDS011;10320;49.482;11.256;2023-08-01T09:21:19;5.13;;;4.53;;
20324;SDS011;10320;49.482;11.256;2023-08-01T09:23:45;6.10;;;4.97;;
20324;SDS011;10320;49.482;11.256;2023-08-01T09:26:12;4.90;;;4.23;;
20324;SDS011;10320;49.482;11.256;2023-08-01T09:28:38;6.23;;;4.37;;
20324;SDS011;10320;49.482;11.256;2023-08-01T09:31:04;5.80;;;4.20;;
20324;SDS011;10320;49.482;11.256;2023-08-01T09:33:40;5.70;;;4.80;;
20324;SDS011;10320;49.482;11.256;2023-08-01T09:36:07;6.18;;;4.68;;
20324;SDS011;10320;49.482;11.256;2023-08-01T09:38:37;6.53;;;4.67;;
20324;SDS011;10320;49.482;11.256;2023-08-01T09:41:03;7.13;;;4.90;;
20324;SDS011;10320;49.482;11.256;2023-08-01T09:43:36;6.65;;;4.82;;
20324;SDS011;10320;49.482;11.256;2023-08-01T09:46:02;6.10;;;4.78;;
20324;SDS011;10320;49.482;11.256;2023-08-01T09:48:29;5.38;;;4.63;;
20324;SDS011;10320;49.482;11.256;2023-08-01T09:51:05;5.93;;;4.47;;
20324;SDS011;10320;49.482;11.256;2023-08-01T09:53:32;4.90;;;4.40;;
20324;SDS011;10320;49.482;11.256;2023-08-01T09:56:01;5.05;;;4.55;;
20324;SDS011;10320;49.482;11.256;2023-08-01T09:58:33;6.22;;;4.70;;
20324;SDS011;10320;49.482;11.256;2023-08-01T10:01:00;6.00;;;4.50;;
20324;SDS011;10320;49.482;11.256;2023-08-01T10:03:29;5.38;;;4.70;;
20324;SDS011;10320;49.482;11.256;2023-08-01T10:05:56;7.50;;;4.80;;
20324;SDS011;10320;49.482;11.256;2023-08-01T10:08:22;6.32;;;4.88;;
20324;SDS011;10320;49.482;11.256;2023-08-01T10:10:49;6.45;;;4.93;;
20324;SDS011;10320;49.482;11.256;2023-08-01T10:13:15;5.90;;;4.78;;
20324;SDS011;10320;49.482;11.256;2023-08-01T10:15:41;5.80;;;4.57;;
20324;SDS011;10320;49.482;11.256;2023-08-01T10:18:08;5.00;;;4.50;;
20324;SDS011;10320;49.482;11.256;2023-08-01T10:20:35;5.10;;;4.60;;
20324;SDS011;10320;49.482;11.256;2023-08-01T10:23:02;6.80;;;4.18;;
20324;SDS011;10320;49.482;11.256;2023-08-01T10:25:29;5.25;;;4.35;;
20324;SDS011;10320;49.482;11.256;2023-08-01T10:28:02;5.40;;;4.50;;
20324;SDS011;10320;49.482;11.256;2023-08-01T10:30:28;4.72;;;4.32;;
20324;SDS011;10320;49.482;11.256;2023-08-01T10:32:55;6.30;;;3.95;;
20324;SDS011;10320;49.482;11.256;2023-08-01T10:38:17;4.40;;;4.00;;
20324;SDS011;10320;49.482;11.256;2023-08-01T10:40:43;8.23;;;4.90;;
20324;SDS011;10320;49.482;11.256;2023-08-01T10:43:19;5.40;;;4.50;;
20324;SDS011;10320;49.482;11.256;2023-08-01T10:45:46;5.13;;;4.50;;
20324;SDS011;10320;49.482;11.256;2023-08-01T10:48:12;4.72;;;4.32;;
20324;SDS011;10320;49.482;11.256;2023-08-01T10:50:38;5.20;;;4.00;;
20324;SDS011;10320;49.482;11.256;2023-08-01T10:53:06;4.88;;;4.07;;
20324;SDS011;10320;49.482;11.256;2023-08-01T10:55:43;4.80;;;3.92;;
20324;SDS011;10320;49.482;11.256;2023-08-01T10:58:09;4.38;;;3.97;;
20324;SDS011;10320;49.482;11.256;2023-08-01T11:00:36;4.45;;;3.75;;
20324;SDS011;10320;49.482;11.256;2023-08-01T11:03:02;4.28;;;3.88;;
20324;SDS011;10320;49.482;11.256;2023-08-01T11:05:28;3.47;;;3.17;;
20324;SDS011;10320;49.482;11.256;2023-08-01T11:07:55;4.60;;;3.35;;
20324;SDS011;10320;49.482;11.256;2023-08-01T11:10:21;3.20;;;2.90;;
20324;SDS011;10320;49.482;11.256;2023-08-01T11:12:47;3.85;;;3.08;;
20324;SDS011;10320;49.482;11.256;2023-08-01T11:15:14;3.60;;;3.03;;
20324;SDS011;10320;49.482;11.256;2023-08-01T11:17:42;4.32;;;2.85;;
20324;SDS011;10320;49.482;11.256;2023-08-01T11:20:08;3.42;;;2.90;;
20324;SDS011;10320;49.482;11.256;2023-08-01T11:22:35;3.00;;;2.70;;
20324;SDS011;10320;49.482;11.256;2023-08-01T11:25:03;7.10;;;2.95;;
20324;SDS011;10320;49.482;11.256;2023-08-01T11:27:29;4.88;;;3.15;;
20324;SDS011;10320;49.482;11.256;2023-08-01T11:29:55;4.78;;;3.20;;
20324;SDS011;10320;49.482;11.256;2023-08-01T11:32:22;4.47;;;3.17;;
20324;SDS011;10320;49.482;11.256;2023-08-01T11:34:58;2.47;;;2.28;;
20324;SDS011;10320;49.482;11.256;2023-08-01T11:37:25;3.17;;;2.60;;
20324;SDS011;10320;49.482;11.256;2023-08-01T11:39:51;3.03;;;2.47;;
20324;SDS011;10320;49.482;11.256;2023-08-01T11:42:18;3.50;;;2.60;;
20324;SDS011;10320;49.482;11.256;2023-08-01T11:44:44;3.67;;;3.10;;
20324;SDS011;10320;49.482;11.256;2023-08-01T11:47:11;2.80;;;2.60;;
20324;SDS011;10320;49.482;11.256;2023-08-01T11:49:37;3.67;;;2.67;;
20324;SDS011;10320;49.482;11.256;2023-08-01T11:52:03;3.20;;;2.55;;
20324;SDS011;10320;49.482;11.256;2023-08-01T11:54:29;3.22;;;2.58;;
20324;SDS011;10320;49.482;11.256;2023-08-01T11:57:00;3.50;;;2.38;;
20324;SDS011;10320;49.482;11.256;2023-08-01T11:59:26;3.92;;;2.47;;
20324;SDS011;10320;49.482;11.256;2023-08-01T12:01:52;2.85;;;2.30;;
20324;SDS011;10320;49.482;11.256;2023-08-01T12:04:24;2.40;;;2.20;;
20324;SDS011;10320;49.482;11.256;2023-08-01T12:06:52;3.38;;;2.40;;
20324;SDS011;10320;49.482;11.256;2023-08-01T12:09:18;2.40;;;2.20;;
20324;SDS011;10320;49.482;11.256;2023-08-01T12:11:57;2.17;;;2.08;;
20324;SDS011;10320;49.482;11.256;2023-08-01T12:14:23;2.55;;;1.80;;
20324;SDS011;10320;49.482;11.256;2023-08-01T12:16:49;1.67;;;1.58;;
20324;SDS011;10320;49.482;11.256;2023-08-01T12:19:18;1.60;;;1.50;;
20324;SDS011;10320;49.482;11.256;2023-08-01T12:21:45;1.77;;;1.40;;
20324;SDS011;10320;49.482;11.256;2023-08-01T12:24:11;1.40;;;1.30;;
20324;SDS011;10320;49.482;11.256;2023-08-01T12:26:37;1.65;;;1.30;;
20324;SDS011;10320;49.482;11.256;2023-08-01T12:29:03;1.10;;;1.00;;
20324;SDS011;10320;49.482;11.256;2023-08-01T12:31:29;1.30;;;1.20;;
20324;SDS011;10320;49.482;11.256;2023-08-01T12:33:55;1.40;;;1.20;;
20324;SDS011;10320;49.482;11.256;2023-08-01T12:36:21;0.98;;;0.93;;
20324;SDS011;10320;49.482;11.256;2023-08-01T12:38:48;1.70;;;1.10;;
20324;SDS011;10320;49.482;11.256;2023-08-01T12:41:14;1.10;;;0.98;;
20324;SDS011;10320;49.482;11.256;2023-08-01T12:43:41;1.05;;;1.00;;
20324;SDS011;10320;49.482;11.256;2023-08-01T12:46:07;1.02;;;0.90;;
20324;SDS011;10320;49.482;11.256;2023-08-01T12:48:33;0.80;;;0.80;;
20324;SDS011;10320;49.482;11.256;2023-08-01T12:50:59;2.63;;;1.25;;
20324;SDS011;10320;49.482;11.256;2023-08-01T12:53:25;1.95;;;1.30;;
20324;SDS011;10320;49.482;11.256;2023-08-01T12:55:51;2.35;;;0.90;;
20324;SDS011;10320;49.482;11.256;2023-08-01T12:58:17;2.92;;;0.98;;
20324;SDS011;10320;49.482;11.256;2023-08-01T13:00:44;1.27;;;0.90;;
20324;SDS011;10320;49.482;11.256;2023-08-01T13:03:10;1.95;;;1.02;;
20324;SDS011;10320;49.482;11.256;2023-08-01T13:05:37;1.65;;;1.00;;
20324;SDS011;10320;49.482;11.256;2023-08-01T13:08:03;1.20;;;1.00;;
20324;SDS011;10320;49.482;11.256;2023-08-01T13:10:33;1.13;;;0.95;;
20324;SDS011;10320;49.482;11.256;2023-08-01T13:12:59;1.10;;;1.00;;
20324;SDS011;10320;49.482;11.256;2023-08-01T13:15:25;1.60;;;1.30;;
20324;SDS011;10320;49.482;11.256;2023-08-01T13:17:51;1.15;;;1.10;;
20324;SDS011;10320;49.482;11.256;2023-08-01T13:20:17;1.08;;;1.00;;
20324;SDS011;10320;49.482;11.256;2023-08-01T13:22:45;1.33;;;1.10;;
20324;SDS011;10320;49.482;11.256;2023-08-01T13:25:12;0.80;;;0.73;;
20324;SDS011;10320;49.482;11.256;2023-08-01T13:27:38;1.48;;;1.10;;
20324;SDS011;10320;49.482;11.256;2023-08-01T13:30:04;1.67;;;1.20;;
20324;SDS011;10320;49.482;11.256;2023-08-01T13:32:31;1.02;;;0.85;;
20324;SDS011;10320;49.482;11.256;2023-08-01T13:34:57;1.70;;;1.17;;
20324;SDS011;10320;49.482;11.256;2023-08-01T13:37:23;1.20;;;1.10;;
20324;SDS011;10320;49.482;11.256;2023-08-01T13:39:49;1.23;;;1.10;;
20324;SDS011;10320;49.482;11.256;2023-08-01T13:42:15;2.10;;;1.25;;
20324;SDS011;10320;49.482;11.256;2023-08-01T13:44:41;1.55;;;1.15;;
20324;SDS011;10320;49.482;11.256;2023-08-01T13:47:07;1.00;;;1.00;;
20324;SDS011;10320;49.482;11.256;2023-08-01T13:49:33;1.10;;;1.00;;
20324;SDS011;10320;49.482;11.256;2023-08-01T13:52:00;1.38;;;1.00;;
20324;SDS011;10320;49.482;11.256;2023-08-01T13:54:26;0.93;;;0.90;;
20324;SDS011;10320;49.482;11.256;2023-08-01T13:56:52;1.35;;;1.05;;
20324;SDS011;10320;49.482;11.256;2023-08-01T13:59:18;1.98;;;1.17;;
20324;SDS011;10320;49.482;11.256;2023-08-01T14:01:46;1.05;;;0.95;;
20324;SDS011;10320;49.482;11.256;2023-08-01T14:04:12;1.23;;;1.13;;
20324;SDS011;10320;49.482;11.256;2023-08-01T14:06:41;1.38;;;1.00;;
20324;SDS011;10320;49.482;11.256;2023-08-01T14:09:10;1.35;;;1.25;;
20324;SDS011;10320;49.482;11.256;2023-08-01T14:11:37;1.27;;;1.00;;
20324;SDS011;10320;49.482;11.256;2023-08-01T14:14:03;0.95;;;0.95;;
20324;SDS011;10320;49.482;11.256;2023-08-01T14:16:29;1.30;;;1.15;;
20324;SDS011;10320;49.482;11.256;2023-08-01T14:18:58;1.48;;;1.30;;
20324;SDS011;10320;49.482;11.256;2023-08-01T14:21:24;1.60;;;1.50;;
20324;SDS011;10320;49.482;11.256;2023-08-01T14:23:50;1.67;;;1.55;;
20324;SDS011;10320;49.482;11.256;2023-08-01T14:26:16;1.75;;;1.20;;
20324;SDS011;10320;49.482;11.256;2023-08-01T14:28:42;1.23;;;1.13;;
20324;SDS011;10320;49.482;11.256;2023-08-01T14:31:08;1.80;;;1.60;;
20324;SDS011;10320;49.482;11.256;2023-08-01T14:33:34;1.50;;;1.40;;